Time;durP1;ratioP1;P1;durP2;ratioP2;P2;SDS_P1;SDS_P2;PMS_P1;PMS_P2;Temp;Humidity;BMP_temperature;BMP_pressure;BME280_temperature;BME280_humidity;BME280_pressure;Samples;Min_cycle;Max_cycle;Signal;HPM_P1;HPM_P2
2023/02/11 00:00:00;;;;;;;;;;;;;;;;;;1044049;28;19956;-81
2023/02/11 00:00:31;;;;;;;;;;;;;;;;;;1044100;28;19917;-79
2023/02/11 00:01:01;;;;;;;;;;;;;;;;;;1044274;28;19944;-78
2023/02/11 00:01:32;;;;;;;;;;;;;;;;;;1044592;28;19921;-80
2023/02/11 00:02:04;;;;;;;;;;;;;;;;;;1044373;28;19913;-79
2023/02/11 00:02:35;;;;;;;;;;;;;;;;;;1044679;28;19932;-80
2023/02/11 00:03:05;;;;;;;;;;;;;;;;;;1043963;28;20003;-79
2023/02/11 00:03:37;;;;;;;;;;;;;;;;;;1044530;28;19931;-81
2023/02/11 00:04:08;;;;;;;;;;;;;;;;;;1044338;28;19912;-78
2023/02/11 00:04:39;;;;;;;;;;;;;;;;;;1044523;28;20078;-79
2023/02/11 00:05:10;;;;;;;;;;;;;;;;;;1044542;28;19920;-78
2023/02/11 00:05:40;;;;;;;;;;;;;;;;;;1044494;28;19909;-79
2023/02/11 00:06:11;;;;;;;;;;;;;;;;;;1043593;28;19920;-79
2023/02/11 00:06:42;;;;;;;;;;;;;;;;;;1044691;28;20379;-79
2023/02/11 00:07:13;;;;;;;;;;;;;;;;;;1044302;28;20295;-78
2023/02/11 00:07:44;;;;;;;;;;;;;;;;;;1044820;28;20007;-79
2023/02/11 00:08:15;;;;;;;;;;;;;;;;;;1044541;28;19932;-77
2023/02/11 00:08:46;;;;;;;;;;;;;;;;;;1045109;28;19905;-79
2023/02/11 00:09:17;;;;;;;;;;;;;;;;;;1043637;28;19909;-78
2023/02/11 00:09:48;;;;;;;;;;;;;;;;;;1040586;28;19928;-79
2023/02/11 00:10:19;;;;;;;;;;;;;;;;;;1040321;28;19909;-78
2023/02/11 00:10:50;;;;;;;;;;;;;;;;;;1040240;28;19910;-77
2023/02/11 00:11:21;;;;;;;;;;;;;;;;;;1044116;28;20319;-81
2023/02/11 00:11:52;;;;;;;;;;;;;;;;;;1044398;28;20343;-78
2023/02/11 00:12:23;;;;;;;;;;;;;;;;;;1044375;28;19909;-78
2023/02/11 00:12:53;;;;;;;;;;;;;;;;;;1040035;28;20501;-78
2023/02/11 00:13:24;;;;;;;;;;;;;;;;;;1040290;28;19992;-78
2023/02/11 00:13:55;;;;;;;;;;;;;;;;;;1040301;28;20590;-79
2023/02/11 00:14:26;;;;;;;;;;;;;;;;;;1040323;28;19916;-79
2023/02/11 00:14:57;;;;;;;;;;;;;;;;;;1040201;28;20694;-79
2023/02/11 00:15:28;;;;;;;;;;;;;;;;;;1040146;28;19920;-77
2023/02/11 00:15:59;;;;;;;;;;;;;;;;;;1039807;28;20373;-78
2023/02/11 00:16:31;;;;;;;;;;;;;;;;;;1040195;28;20000;-80
2023/02/11 00:17:01;;;;;;;;;;;;;;;;;;1039740;28;20254;-79
2023/02/11 00:17:32;;;;;;;;;;;;;;;;;;1036493;28;20676;-81
2023/02/11 00:18:03;;;;;;;;;;;;;;;;;;1039977;28;19999;-79
2023/02/11 00:18:35;;;;;;;;;;;;;;;;;;1040527;28;19968;-78
2023/02/11 00:19:06;;;;;;;;;;;;;;;;;;1040330;28;19913;-79
2023/02/11 00:19:37;;;;;;;;;;;;;;;;;;1044386;28;19909;-79
2023/02/11 00:20:07;;;;;;;;;;;;;;;;;;1044181;28;20027;-79
2023/02/11 00:20:38;;;;;;;;;;;;;;;;;;1039777;28;20453;-79
2023/02/11 00:21:09;;;;;;;;;;;;;;;;;;1039538;28;19909;-79
2023/02/11 00:21:40;;;;;;;;;;;;;;;;;;1040580;28;20058;-80
2023/02/11 00:22:11;;;;;;;;;;;;;;;;;;1040225;28;19909;-79
2023/02/11 00:22:42;;;;;;;;;;;;;;;;;;1040578;28;19921;-79
2023/02/11 00:23:13;;;;;;;;;;;;;;;;;;1043986;28;19908;-79
2023/02/11 00:23:44;;;;;;;;;;;;;;;;;;1040239;28;19955;-80
2023/02/11 00:24:15;;;;;;;;;;;;;;;;;;1040336;28;19940;-80
2023/02/11 00:24:46;;;;;;;;;;;;;;;;;;1040151;28;19905;-79
2023/02/11 00:25:16;;;;;;;;;;;;;;;;;;1040105;28;19905;-79
2023/02/11 00:25:47;;;;;;;;;;;;;;;;;;1040259;28;19909;-79
2023/02/11 00:26:18;;;;;;;;;;;;;;;;;;1039536;28;19913;-78
2023/02/11 00:26:49;;;;;;;;;;;;;;;;;;1040371;28;19916;-81
2023/02/11 00:27:20;;;;;;;;;;;;;;;;;;1040018;28;19909;-79
2023/02/11 00:27:51;;;;;;;;;;;;;;;;;;1040509;28;19975;-78
2023/02/11 00:28:22;;;;;;;;;;;;;;;;;;1039556;28;19941;-79
2023/02/11 00:28:53;;;;;;;;;;;;;;;;;;1040483;28;19909;-79
2023/02/11 00:29:23;;;;;;;;;;;;;;;;;;1039836;28;19947;-79
2023/02/11 00:29:54;;;;;;;;;;;;;;;;;;1038407;28;19996;-79
2023/02/11 00:30:25;;;;;;;;;;;;;;;;;;1035855;28;19909;-79
2023/02/11 00:30:56;;;;;;;;;;;;;;;;;;1036229;28;20798;-78
2023/02/11 00:31:27;;;;;;;;;;;;;;;;;;1036225;28;19910;-78
2023/02/11 00:32:03;;;;;;;;;;;;;;;;;;1040039;28;19963;-78
2023/02/11 00:32:34;;;;;;;;;;;;;;;;;;1036937;28;19914;-80
2023/02/11 00:33:05;;;;;;;;;;;;;;;;;;1040498;28;19909;-79
2023/02/11 00:33:36;;;;;;;;;;;;;;;;;;1040089;28;20015;-79
2023/02/11 00:34:07;;;;;;;;;;;;;;;;;;1036288;28;20352;-79
2023/02/11 00:34:38;;;;;;;;;;;;;;;;;;1036004;28;19960;-79
2023/02/11 00:35:09;;;;;;;;;;;;;;;;;;1036712;28;19995;-79
2023/02/11 00:35:40;;;;;;;;;;;;;;;;;;1039886;28;20410;-82
2023/02/11 00:36:10;;;;;;;;;;;;;;;;;;1040533;28;19932;-79
2023/02/11 00:36:41;;;;;;;;;;;;;;;;;;1044410;28;20015;-79
2023/02/11 00:37:12;;;;;;;;;;;;;;;;;;1037763;28;19905;-79
2023/02/11 00:37:43;;;;;;;;;;;;;;;;;;1035794;28;20000;-80
2023/02/11 00:38:14;;;;;;;;;;;;;;;;;;1036088;28;19909;-79
2023/02/11 00:38:45;;;;;;;;;;;;;;;;;;1036167;28;20380;-80
2023/02/11 00:39:16;;;;;;;;;;;;;;;;;;1040551;28;19909;-79
2023/02/11 00:39:47;;;;;;;;;;;;;;;;;;1035970;28;20352;-79
2023/02/11 00:40:17;;;;;;;;;;;;;;;;;;1035901;28;19925;-80
2023/02/11 00:40:48;;;;;;;;;;;;;;;;;;1040050;28;19949;-80
2023/02/11 00:41:19;;;;;;;;;;;;;;;;;;1040237;28;20261;-79
2023/02/11 00:41:50;;;;;;;;;;;;;;;;;;1040780;28;19920;-79
2023/02/11 00:42:21;;;;;;;;;;;;;;;;;;1041188;28;20728;-79
2023/02/11 00:42:52;;;;;;;;;;;;;;;;;;1036168;28;19913;-80
2023/02/11 00:43:23;;;;;;;;;;;;;;;;;;1035889;28;20057;-80
2023/02/11 00:43:54;;;;;;;;;;;;;;;;;;1037691;28;19940;-80
2023/02/11 00:44:24;;;;;;;;;;;;;;;;;;1040257;28;19916;-80
2023/02/11 00:44:55;;;;;;;;;;;;;;;;;;1040280;28;19920;-80
2023/02/11 00:45:27;;;;;;;;;;;;;;;;;;1039869;28;19913;-80
2023/02/11 00:45:58;;;;;;;;;;;;;;;;;;1040265;28;19949;-80
2023/02/11 00:46:29;;;;;;;;;;;;;;;;;;1040050;28;19959;-82
2023/02/11 00:47:00;;;;;;;;;;;;;;;;;;1044476;28;19915;-80
2023/02/11 00:47:31;;;;;;;;;;;;;;;;;;1040010;28;19948;-80
2023/02/11 00:48:01;;;;;;;;;;;;;;;;;;1040283;28;19909;-80
2023/02/11 00:48:32;;;;;;;;;;;;;;;;;;1039831;28;19914;-80
2023/02/11 00:49:03;;;;;;;;;;;;;;;;;;1040506;28;20012;-81
2023/02/11 00:49:35;;;;;;;;;;;;;;;;;;1044147;28;19940;-79
2023/02/11 00:50:07;;;;;;;;;;;;;;;;;;1044297;28;20010;-80
2023/02/11 00:50:38;;;;;;;;;;;;;;;;;;1044200;28;20576;-80
2023/02/11 00:51:08;;;;;;;;;;;;;;;;;;1044299;28;20319;-79
2023/02/11 00:51:39;;;;;;;;;;;;;;;;;;1044256;28;19909;-80
2023/02/11 00:52:10;;;;;;;;;;;;;;;;;;1040397;28;19909;-81
2023/02/11 00:52:41;;;;;;;;;;;;;;;;;;1039852;28;19910;-79
2023/02/11 00:53:12;;;;;;;;;;;;;;;;;;1040290;28;19912;-80
2023/02/11 00:53:43;;;;;;;;;;;;;;;;;;1040004;28;19915;-79
2023/02/11 00:54:14;;;;;;;;;;;;;;;;;;1040051;28;19911;-80
2023/02/11 00:54:45;;;;;;;;;;;;;;;;;;1039859;28;19947;-80
2023/02/11 00:55:15;;;;;;;;;;;;;;;;;;1040259;28;19916;-80
2023/02/11 00:55:46;;;;;;;;;;;;;;;;;;1039796;28;20461;-79
2023/02/11 00:56:17;;;;;;;;;;;;;;;;;;1040372;28;19967;-79
2023/02/11 00:56:48;;;;;;;;;;;;;;;;;;1044469;28;19908;-79
2023/02/11 00:57:19;;;;;;;;;;;;;;;;;;1044699;28;19912;-79
2023/02/11 00:57:50;;;;;;;;;;;;;;;;;;1044396;28;19915;-79
2023/02/11 00:58:21;;;;;;;;;;;;;;;;;;1044940;28;20272;-78
2023/02/11 00:58:52;;;;;;;;;;;;;;;;;;1044554;28;19909;-79
2023/02/11 00:59:23;;;;;;;;;;;;;;;;;;1044645;28;19916;-79
2023/02/11 00:59:54;;;;;;;;;;;;;;;;;;1044352;28;19916;-80
2023/02/11 01:00:25;;;;;;;;;;;;;;;;;;1044626;28;19908;-79
2023/02/11 01:00:56;;;;;;;;;;;;;;;;;;1043880;28;19932;-79
2023/02/11 01:01:27;;;;;;;;;;;;;;;;;;1040116;28;19909;-79
2023/02/11 01:01:58;;;;;;;;;;;;;;;;;;1035676;28;20004;-79
2023/02/11 01:02:29;;;;;;;;;;;;;;;;;;1035594;28;19913;-80
2023/02/11 01:02:59;;;;;;;;;;;;;;;;;;1035915;28;20760;-79
2023/02/11 01:03:30;;;;;;;;;;;;;;;;;;1039805;28;20270;-79
2023/02/11 01:04:01;;;;;;;;;;;;;;;;;;1044047;28;20267;-79
2023/02/11 01:04:32;;;;;;;;;;;;;;;;;;1044057;28;20000;-78
2023/02/11 01:05:03;;;;;;;;;;;;;;;;;;1043499;28;19909;-79
2023/02/11 01:05:34;;;;;;;;;;;;;;;;;;1039581;28;20404;-78
2023/02/11 01:06:05;;;;;;;;;;;;;;;;;;1039332;28;20023;-79
2023/02/11 01:06:35;;;;;;;;;;;;;;;;;;1039360;28;19913;-80
2023/02/11 01:07:06;;;;;;;;;;;;;;;;;;1039718;28;19913;-79
2023/02/11 01:07:37;;;;;;;;;;;;;;;;;;1039546;28;19917;-79
2023/02/11 01:08:08;;;;;;;;;;;;;;;;;;1039906;28;20399;-79
2023/02/11 01:08:39;;;;;;;;;;;;;;;;;;1043778;28;19986;-80
2023/02/11 01:09:10;;;;;;;;;;;;;;;;;;1039853;28;20317;-79
2023/02/11 01:09:41;;;;;;;;;;;;;;;;;;1039357;28;19913;-79
2023/02/11 01:10:12;;;;;;;;;;;;;;;;;;1039521;28;20336;-79
2023/02/11 01:10:42;;;;;;;;;;;;;;;;;;1039429;28;19920;-79
2023/02/11 01:11:13;;;;;;;;;;;;;;;;;;1039711;28;19913;-79
2023/02/11 01:11:44;;;;;;;;;;;;;;;;;;1039741;28;19913;-79
2023/02/11 01:12:15;;;;;;;;;;;;;;;;;;1039993;28;19952;-78
2023/02/11 01:12:46;;;;;;;;;;;;;;;;;;1039484;28;19913;-78
2023/02/11 01:13:17;;;;;;;;;;;;;;;;;;1040137;28;19919;-79
2023/02/11 01:13:48;;;;;;;;;;;;;;;;;;1039585;28;19909;-79
2023/02/11 01:14:19;;;;;;;;;;;;;;;;;;1039613;28;20000;-79
2023/02/11 01:14:50;;;;;;;;;;;;;;;;;;1039475;28;20376;-78
2023/02/11 01:15:20;;;;;;;;;;;;;;;;;;1039881;28;19913;-78
2023/02/11 01:15:51;;;;;;;;;;;;;;;;;;1039715;28;19917;-79
2023/02/11 01:16:22;;;;;;;;;;;;;;;;;;1039864;28;20635;-80
2023/02/11 01:16:53;;;;;;;;;;;;;;;;;;1039693;28;20470;-80
2023/02/11 01:17:24;;;;;;;;;;;;;;;;;;1039942;28;19993;-79
2023/02/11 01:17:55;;;;;;;;;;;;;;;;;;1035380;28;19914;-80
2023/02/11 01:18:26;;;;;;;;;;;;;;;;;;1036319;28;19913;-79
2023/02/11 01:18:57;;;;;;;;;;;;;;;;;;1039625;28;19913;-79
2023/02/11 01:19:28;;;;;;;;;;;;;;;;;;1039747;28;20000;-81
2023/02/11 01:19:59;;;;;;;;;;;;;;;;;;1040317;28;20289;-79
2023/02/11 01:20:30;;;;;;;;;;;;;;;;;;1044136;28;20372;-80
2023/02/11 01:21:01;;;;;;;;;;;;;;;;;;1043488;28;20008;-80
2023/02/11 01:21:32;;;;;;;;;;;;;;;;;;1039948;28;20435;-79
2023/02/11 01:22:03;;;;;;;;;;;;;;;;;;1039972;28;19913;-79
2023/02/11 01:22:38;;;;;;;;;;;;;;;;;;1040078;28;19913;-80
2023/02/11 01:23:09;;;;;;;;;;;;;;;;;;1040628;28;19913;-79
2023/02/11 01:23:40;;;;;;;;;;;;;;;;;;1040222;28;19943;-78
2023/02/11 01:24:10;;;;;;;;;;;;;;;;;;1039847;28;20716;-79
2023/02/11 01:24:41;;;;;;;;;;;;;;;;;;1039909;28;20011;-79
2023/02/11 01:25:12;;;;;;;;;;;;;;;;;;1039627;28;19924;-80
2023/02/11 01:25:43;;;;;;;;;;;;;;;;;;1039665;28;20388;-79
2023/02/11 01:26:14;;;;;;;;;;;;;;;;;;1039280;28;20004;-78
2023/02/11 01:26:45;;;;;;;;;;;;;;;;;;1039859;28;20383;-79
2023/02/11 01:27:16;;;;;;;;;;;;;;;;;;1039523;28;19920;-80
2023/02/11 01:27:47;;;;;;;;;;;;;;;;;;1040092;28;19913;-80
2023/02/11 01:28:17;;;;;;;;;;;;;;;;;;1045244;28;19912;-80
2023/02/11 01:28:48;;;;;;;;;;;;;;;;;;1039817;28;20019;-80
2023/02/11 01:29:19;;;;;;;;;;;;;;;;;;1039783;28;19913;-80
2023/02/11 01:29:50;;;;;;;;;;;;;;;;;;1039888;28;19920;-80
2023/02/11 01:30:21;;;;;;;;;;;;;;;;;;1039808;28;19913;-79
2023/02/11 01:30:55;;;;;;;;;;;;;;;;;;1044373;28;19966;-81
2023/02/11 01:31:26;;;;;;;;;;;;;;;;;;1039575;28;20478;-78
2023/02/11 01:31:56;;;;;;;;;;;;;;;;;;1039697;28;19913;-79
2023/02/11 01:32:27;;;;;;;;;;;;;;;;;;1040046;28;19913;-79
2023/02/11 01:32:58;;;;;;;;;;;;;;;;;;1039922;28;20381;-79
2023/02/11 01:33:29;;;;;;;;;;;;;;;;;;1035879;28;19914;-79
2023/02/11 01:34:00;;;;;;;;;;;;;;;;;;1039895;28;19913;-79
2023/02/11 01:34:31;;;;;;;;;;;;;;;;;;1039867;28;19925;-79
2023/02/11 01:35:02;;;;;;;;;;;;;;;;;;1040094;28;19917;-79
2023/02/11 01:35:33;;;;;;;;;;;;;;;;;;1044410;28;20035;-81
2023/02/11 01:36:03;;;;;;;;;;;;;;;;;;1044452;28;19912;-79
2023/02/11 01:36:34;;;;;;;;;;;;;;;;;;1044221;28;20655;-80
2023/02/11 01:37:05;;;;;;;;;;;;;;;;;;1044132;28;19912;-80
2023/02/11 01:37:36;;;;;;;;;;;;;;;;;;1043883;28;19940;-79
2023/02/11 01:38:07;;;;;;;;;;;;;;;;;;1039955;28;20379;-79
2023/02/11 01:38:39;;;;;;;;;;;;;;;;;;1039651;28;20369;-79
2023/02/11 01:39:10;;;;;;;;;;;;;;;;;;1039957;28;20000;-79
2023/02/11 01:39:41;;;;;;;;;;;;;;;;;;1040077;28;19913;-79
2023/02/11 01:40:12;;;;;;;;;;;;;;;;;;1040614;28;19967;-79
2023/02/11 01:40:43;;;;;;;;;;;;;;;;;;1035619;28;19969;-79
2023/02/11 01:41:14;;;;;;;;;;;;;;;;;;1035940;28;19913;-80
2023/02/11 01:41:45;;;;;;;;;;;;;;;;;;1035798;28;19913;-79
2023/02/11 01:42:16;;;;;;;;;;;;;;;;;;1035673;28;20008;-80
2023/02/11 01:42:46;;;;;;;;;;;;;;;;;;1035895;28;19920;-80
2023/02/11 01:43:17;;;;;;;;;;;;;;;;;;1036012;28;19913;-79
2023/02/11 01:43:48;;;;;;;;;;;;;;;;;;1035669;28;20308;-79
2023/02/11 01:44:19;;;;;;;;;;;;;;;;;;1036041;28;19945;-80
2023/02/11 01:44:50;;;;;;;;;;;;;;;;;;1036006;28;19913;-80
2023/02/11 01:45:21;;;;;;;;;;;;;;;;;;1035681;28;19913;-80
2023/02/11 01:45:52;;;;;;;;;;;;;;;;;;1040288;28;19909;-80
2023/02/11 01:46:23;;;;;;;;;;;;;;;;;;1040159;28;19909;-79
2023/02/11 01:46:54;;;;;;;;;;;;;;;;;;1040313;28;19912;-81
2023/02/11 01:47:25;;;;;;;;;;;;;;;;;;1039865;28;19909;-79
2023/02/11 01:47:56;;;;;;;;;;;;;;;;;;1035897;28;19936;-79
2023/02/11 01:48:27;;;;;;;;;;;;;;;;;;1035696;28;19955;-79
2023/02/11 01:48:58;;;;;;;;;;;;;;;;;;1035765;28;19909;-80
2023/02/11 01:49:28;;;;;;;;;;;;;;;;;;1035771;28;19953;-80
2023/02/11 01:49:59;;;;;;;;;;;;;;;;;;1035728;28;19921;-79
2023/02/11 01:50:30;;;;;;;;;;;;;;;;;;1031289;28;19917;-79
2023/02/11 01:51:01;;;;;;;;;;;;;;;;;;1031617;28;19945;-80
2023/02/11 01:51:32;;;;;;;;;;;;;;;;;;1031715;28;19917;-80
2023/02/11 01:52:03;;;;;;;;;;;;;;;;;;1035759;28;19909;-79
2023/02/11 01:52:34;;;;;;;;;;;;;;;;;;1034353;28;19981;-79
2023/02/11 01:57:22;;;;;;;;;;;;;;;;;;1035966;28;19936;-80
2023/02/11 01:57:55;;;;;;;;;;;;;;;;;;1035253;28;20379;-79
2023/02/11 01:58:26;;;;;;;;;;;;;;;;;;1032009;28;20027;-80
2023/02/11 01:58:56;;;;;;;;;;;;;;;;;;1035325;28;19948;-79
2023/02/11 01:59:27;;;;;;;;;;;;;;;;;;1035379;28;19914;-79
2023/02/11 01:59:58;;;;;;;;;;;;;;;;;;1035482;28;20352;-80
2023/02/11 02:00:29;;;;;;;;;;;;;;;;;;1039948;28;19913;-80
2023/02/11 02:01:00;;;;;;;;;;;;;;;;;;1039569;28;20502;-79
2023/02/11 02:01:31;;;;;;;;;;;;;;;;;;1035750;28;20036;-79
2023/02/11 02:02:02;;;;;;;;;;;;;;;;;;1035368;28;20020;-80
2023/02/11 02:02:33;;;;;;;;;;;;;;;;;;1035714;28;19914;-79
2023/02/11 02:03:04;;;;;;;;;;;;;;;;;;1035847;28;20267;-78
2023/02/11 02:03:35;;;;;;;;;;;;;;;;;;1040047;28;19948;-80
2023/02/11 02:04:05;;;;;;;;;;;;;;;;;;1035405;28;19939;-81
2023/02/11 02:04:36;;;;;;;;;;;;;;;;;;1035648;28;19915;-78
2023/02/11 02:05:07;;;;;;;;;;;;;;;;;;1035546;28;19913;-79
2023/02/11 02:05:38;;;;;;;;;;;;;;;;;;1035873;28;19977;-79
2023/02/11 02:06:09;;;;;;;;;;;;;;;;;;1039665;28;19917;-79
2023/02/11 02:06:40;;;;;;;;;;;;;;;;;;1039743;28;19913;-80
2023/02/11 02:07:11;;;;;;;;;;;;;;;;;;1039528;28;20012;-80
2023/02/11 02:07:42;;;;;;;;;;;;;;;;;;1039552;28;19919;-81
2023/02/11 02:08:13;;;;;;;;;;;;;;;;;;1035533;28;19940;-78
2023/02/11 02:08:44;;;;;;;;;;;;;;;;;;1035530;28;20402;-81
2023/02/11 02:09:15;;;;;;;;;;;;;;;;;;1035424;28;19956;-80
2023/02/11 02:09:45;;;;;;;;;;;;;;;;;;1035661;28;20016;-79
2023/02/11 02:10:16;;;;;;;;;;;;;;;;;;1035133;28;19913;-78
2023/02/11 02:10:47;;;;;;;;;;;;;;;;;;1031742;28;19914;-78
2023/02/11 02:11:18;;;;;;;;;;;;;;;;;;1035412;28;19993;-79
2023/02/11 02:11:49;;;;;;;;;;;;;;;;;;1035705;28;20000;-79
2023/02/11 02:12:20;;;;;;;;;;;;;;;;;;1035330;28;19913;-78
2023/02/11 02:12:51;;;;;;;;;;;;;;;;;;1036119;28;20392;-79
2023/02/11 02:13:22;;;;;;;;;;;;;;;;;;1039570;28;19913;-79
2023/02/11 02:13:52;;;;;;;;;;;;;;;;;;1039756;28;20642;-79
2023/02/11 02:14:25;;;;;;;;;;;;;;;;;;1039509;28;19917;-79
2023/02/11 02:14:56;;;;;;;;;;;;;;;;;;1039950;28;19948;-79
2023/02/11 02:15:27;;;;;;;;;;;;;;;;;;1035321;28;19913;-79
2023/02/11 02:15:58;;;;;;;;;;;;;;;;;;1036521;28;20378;-80
2023/02/11 02:16:28;;;;;;;;;;;;;;;;;;1035333;28;20426;-79
2023/02/11 02:16:59;;;;;;;;;;;;;;;;;;1033771;28;20746;-80
2023/02/11 02:17:30;;;;;;;;;;;;;;;;;;1035124;28;19921;-80
2023/02/11 02:18:01;;;;;;;;;;;;;;;;;;1035381;28;19920;-81
2023/02/11 02:18:32;;;;;;;;;;;;;;;;;;1036005;28;19944;-78
2023/02/11 02:19:03;;;;;;;;;;;;;;;;;;1035912;28;19917;-79
2023/02/11 02:19:34;;;;;;;;;;;;;;;;;;1039923;28;20403;-79
2023/02/11 02:20:05;;;;;;;;;;;;;;;;;;1041139;28;19913;-79
2023/02/11 02:20:38;;;;;;;;;;;;;;;;;;1039327;28;20621;-78
2023/02/11 02:21:09;;;;;;;;;;;;;;;;;;1039538;28;19917;-79
2023/02/11 02:21:40;;;;;;;;;;;;;;;;;;1031786;28;19913;-79
2023/02/11 02:22:13;;;;;;;;;;;;;;;;;;1036264;28;20312;-79
2023/02/11 02:22:43;;;;;;;;;;;;;;;;;;1039690;28;19913;-79
2023/02/11 02:23:14;;;;;;;;;;;;;;;;;;1040023;28;20668;-78
2023/02/11 02:23:45;;;;;;;;;;;;;;;;;;1039790;28;19913;-79
2023/02/11 02:24:16;;;;;;;;;;;;;;;;;;1039384;28;19983;-80
2023/02/11 02:24:47;;;;;;;;;;;;;;;;;;1039798;28;19913;-79
2023/02/11 02:25:18;;;;;;;;;;;;;;;;;;1035712;28;19913;-80
2023/02/11 02:25:49;;;;;;;;;;;;;;;;;;1035719;28;20443;-79
2023/02/11 02:26:20;;;;;;;;;;;;;;;;;;1035284;28;19910;-79
2023/02/11 02:26:51;;;;;;;;;;;;;;;;;;1035903;28;19948;-79
2023/02/11 02:27:22;;;;;;;;;;;;;;;;;;1039359;28;19920;-78
2023/02/11 02:27:53;;;;;;;;;;;;;;;;;;1039880;28;20438;-78
2023/02/11 02:28:23;;;;;;;;;;;;;;;;;;1034156;28;19916;-79
2023/02/11 02:28:54;;;;;;;;;;;;;;;;;;1031577;28;19910;-79
2023/02/11 02:29:25;;;;;;;;;;;;;;;;;;1033745;28;19933;-79
2023/02/11 02:29:56;;;;;;;;;;;;;;;;;;1039893;28;20064;-79
2023/02/11 02:30:27;;;;;;;;;;;;;;;;;;1039604;28;20004;-79
2023/02/11 02:30:58;;;;;;;;;;;;;;;;;;1039574;28;19909;-80
2023/02/11 02:31:29;;;;;;;;;;;;;;;;;;1039331;28;19956;-79
2023/02/11 02:32:00;;;;;;;;;;;;;;;;;;1039635;28;19909;-79
2023/02/11 02:32:30;;;;;;;;;;;;;;;;;;1039480;28;19909;-80
2023/02/11 02:33:01;;;;;;;;;;;;;;;;;;1035547;28;19913;-79
2023/02/11 02:33:32;;;;;;;;;;;;;;;;;;1035610;28;19920;-79
2023/02/11 02:34:03;;;;;;;;;;;;;;;;;;1035437;28;19992;-78
2023/02/11 02:34:34;;;;;;;;;;;;;;;;;;1035566;28;19910;-80
2023/02/11 02:35:05;;;;;;;;;;;;;;;;;;1035486;28;19917;-79
2023/02/11 02:35:36;;;;;;;;;;;;;;;;;;1035405;28;19917;-79
2023/02/11 02:36:07;;;;;;;;;;;;;;;;;;1033748;28;20013;-78
2023/02/11 02:36:38;;;;;;;;;;;;;;;;;;1035700;28;20339;-79
2023/02/11 02:37:09;;;;;;;;;;;;;;;;;;1035561;28;20660;-79
2023/02/11 02:37:40;;;;;;;;;;;;;;;;;;1035311;28;19916;-79
2023/02/11 02:38:11;;;;;;;;;;;;;;;;;;1031538;28;19980;-78
2023/02/11 02:38:42;;;;;;;;;;;;;;;;;;1035320;28;19917;-80
2023/02/11 02:39:12;;;;;;;;;;;;;;;;;;1035725;28;20024;-80
2023/02/11 02:39:43;;;;;;;;;;;;;;;;;;1031403;28;19984;-79
2023/02/11 02:40:14;;;;;;;;;;;;;;;;;;1038812;28;19921;-80
2023/02/11 02:40:45;;;;;;;;;;;;;;;;;;1043792;28;19920;-79
2023/02/11 02:41:16;;;;;;;;;;;;;;;;;;1043234;28;19975;-79
2023/02/11 02:41:47;;;;;;;;;;;;;;;;;;1043642;28;19912;-79
2023/02/11 02:42:18;;;;;;;;;;;;;;;;;;1043604;28;19917;-80
2023/02/11 02:42:49;;;;;;;;;;;;;;;;;;1043863;28;20067;-79
2023/02/11 02:43:19;;;;;;;;;;;;;;;;;;1047577;28;19912;-79
2023/02/11 02:43:50;;;;;;;;;;;;;;;;;;1039643;28;20361;-79
2023/02/11 02:44:21;;;;;;;;;;;;;;;;;;1039561;28;19913;-79
2023/02/11 02:44:52;;;;;;;;;;;;;;;;;;1041677;28;20002;-80
2023/02/11 02:45:23;;;;;;;;;;;;;;;;;;1040716;28;20000;-79
2023/02/11 02:45:54;;;;;;;;;;;;;;;;;;1039381;28;19935;-79
2023/02/11 02:46:25;;;;;;;;;;;;;;;;;;1039874;28;19917;-79
2023/02/11 02:46:56;;;;;;;;;;;;;;;;;;1039934;28;20012;-79
2023/02/11 02:47:26;;;;;;;;;;;;;;;;;;1043758;28;20700;-80
2023/02/11 02:47:57;;;;;;;;;;;;;;;;;;1044241;28;20003;-79
2023/02/11 02:48:28;;;;;;;;;;;;;;;;;;1043503;28;19936;-81
2023/02/11 02:48:59;;;;;;;;;;;;;;;;;;1043854;28;20380;-79
2023/02/11 02:49:30;;;;;;;;;;;;;;;;;;1043576;28;19913;-81
2023/02/11 02:50:01;;;;;;;;;;;;;;;;;;1039443;28;19952;-78
2023/02/11 02:50:32;;;;;;;;;;;;;;;;;;1039352;28;20485;-79
2023/02/11 02:51:03;;;;;;;;;;;;;;;;;;1036465;28;20404;-80
2023/02/11 02:51:34;;;;;;;;;;;;;;;;;;1040101;28;19991;-82
2023/02/11 02:52:04;;;;;;;;;;;;;;;;;;1043947;28;19912;-79
2023/02/11 02:52:35;;;;;;;;;;;;;;;;;;1044215;28;19917;-79
2023/02/11 02:53:06;;;;;;;;;;;;;;;;;;1042958;28;19978;-80
2023/02/11 02:53:37;;;;;;;;;;;;;;;;;;1043948;28;20355;-79
2023/02/11 02:54:08;;;;;;;;;;;;;;;;;;1044455;28;19919;-79
2023/02/11 02:54:39;;;;;;;;;;;;;;;;;;1043367;28;20752;-79
2023/02/11 02:55:10;;;;;;;;;;;;;;;;;;1042779;28;19905;-79
2023/02/11 02:55:40;;;;;;;;;;;;;;;;;;1044459;28;20652;-79
2023/02/11 02:56:11;;;;;;;;;;;;;;;;;;1044913;28;19963;-78
2023/02/11 02:56:42;;;;;;;;;;;;;;;;;;1048473;28;20358;-78
2023/02/11 02:57:13;;;;;;;;;;;;;;;;;;1049074;28;20008;-81
2023/02/11 02:57:44;;;;;;;;;;;;;;;;;;1048945;28;19920;-79
2023/02/11 02:58:15;;;;;;;;;;;;;;;;;;1044625;28;20327;-79
2023/02/11 02:58:46;;;;;;;;;;;;;;;;;;1044242;28;19962;-79
2023/02/11 02:59:16;;;;;;;;;;;;;;;;;;1044653;28;20466;-78
2023/02/11 02:59:47;;;;;;;;;;;;;;;;;;1044506;28;19912;-79
2023/02/11 03:00:18;;;;;;;;;;;;;;;;;;1044235;28;20334;-80
2023/02/11 03:00:49;;;;;;;;;;;;;;;;;;1040691;28;20379;-81
2023/02/11 03:01:20;;;;;;;;;;;;;;;;;;1040542;28;19974;-79
2023/02/11 03:01:52;;;;;;;;;;;;;;;;;;1041672;28;19940;-80
2023/02/11 03:02:23;;;;;;;;;;;;;;;;;;1044875;28;19917;-78
2023/02/11 03:02:53;;;;;;;;;;;;;;;;;;1048907;28;20058;-80
2023/02/11 03:03:24;;;;;;;;;;;;;;;;;;1048984;28;19912;-80
2023/02/11 03:03:55;;;;;;;;;;;;;;;;;;1048828;28;20019;-79
2023/02/11 03:04:26;;;;;;;;;;;;;;;;;;1049135;28;19912;-79
2023/02/11 03:04:57;;;;;;;;;;;;;;;;;;1048825;28;19919;-79
2023/02/11 03:05:29;;;;;;;;;;;;;;;;;;1044354;28;19919;-79
2023/02/11 03:06:00;;;;;;;;;;;;;;;;;;1044270;28;19908;-80
2023/02/11 03:06:31;;;;;;;;;;;;;;;;;;1044635;28;19913;-80
2023/02/11 03:07:02;;;;;;;;;;;;;;;;;;1044762;28;19971;-79
2023/02/11 03:07:32;;;;;;;;;;;;;;;;;;1044617;28;19921;-80
2023/02/11 03:08:04;;;;;;;;;;;;;;;;;;1040696;28;19921;-79
2023/02/11 03:08:35;;;;;;;;;;;;;;;;;;1041289;28;19955;-79
2023/02/11 03:09:06;;;;;;;;;;;;;;;;;;1044252;28;19951;-78
2023/02/11 03:09:36;;;;;;;;;;;;;;;;;;1045022;28;19908;-79
2023/02/11 03:10:07;;;;;;;;;;;;;;;;;;1044319;28;20013;-79
2023/02/11 03:10:38;;;;;;;;;;;;;;;;;;1044269;28;19912;-79
2023/02/11 03:11:09;;;;;;;;;;;;;;;;;;1044245;28;19913;-78
2023/02/11 03:11:40;;;;;;;;;;;;;;;;;;1044215;28;19920;-79
2023/02/11 03:12:11;;;;;;;;;;;;;;;;;;1041631;28;20019;-78
2023/02/11 03:12:42;;;;;;;;;;;;;;;;;;1039970;28;19913;-79
2023/02/11 03:13:13;;;;;;;;;;;;;;;;;;1036201;28;20358;-79
2023/02/11 03:13:44;;;;;;;;;;;;;;;;;;1037911;28;19921;-79
2023/02/11 03:14:14;;;;;;;;;;;;;;;;;;1040425;28;19909;-79
2023/02/11 03:14:45;;;;;;;;;;;;;;;;;;1040317;28;19952;-79
2023/02/11 03:15:16;;;;;;;;;;;;;;;;;;1040354;28;19976;-79
2023/02/11 03:15:47;;;;;;;;;;;;;;;;;;1046129;28;19948;-80
2023/02/11 03:16:18;;;;;;;;;;;;;;;;;;1044418;28;19912;-80
2023/02/11 03:16:49;;;;;;;;;;;;;;;;;;1044666;28;19920;-80
2023/02/11 03:17:20;;;;;;;;;;;;;;;;;;1047716;28;19958;-80
2023/02/11 03:17:50;;;;;;;;;;;;;;;;;;1048859;28;19912;-80
2023/02/11 03:18:21;;;;;;;;;;;;;;;;;;1049029;28;19913;-79
2023/02/11 03:18:52;;;;;;;;;;;;;;;;;;1048678;28;20493;-79
2023/02/11 03:19:23;;;;;;;;;;;;;;;;;;1048439;28;19917;-79
2023/02/11 03:19:54;;;;;;;;;;;;;;;;;;1039919;28;20283;-79
2023/02/11 03:20:25;;;;;;;;;;;;;;;;;;1040007;28;19971;-78
2023/02/11 03:20:56;;;;;;;;;;;;;;;;;;1043734;28;19913;-81
2023/02/11 03:21:27;;;;;;;;;;;;;;;;;;1044261;28;20011;-80
2023/02/11 03:21:58;;;;;;;;;;;;;;;;;;1044286;28;19919;-79
2023/02/11 03:22:29;;;;;;;;;;;;;;;;;;1043181;28;19955;-81
2023/02/11 03:23:00;;;;;;;;;;;;;;;;;;1040131;28;19913;-79
2023/02/11 03:23:30;;;;;;;;;;;;;;;;;;1040476;28;19919;-79
2023/02/11 03:24:01;;;;;;;;;;;;;;;;;;1039967;28;19960;-78
2023/02/11 03:24:32;;;;;;;;;;;;;;;;;;1040403;28;20470;-78
2023/02/11 03:25:03;;;;;;;;;;;;;;;;;;1040464;28;19933;-82
2023/02/11 03:25:34;;;;;;;;;;;;;;;;;;1044472;28;20453;-79
2023/02/11 03:26:05;;;;;;;;;;;;;;;;;;1047865;28;19999;-81
2023/02/11 03:26:36;;;;;;;;;;;;;;;;;;1040411;28;20490;-79
2023/02/11 03:27:07;;;;;;;;;;;;;;;;;;1040055;28;19913;-79
2023/02/11 03:27:37;;;;;;;;;;;;;;;;;;1042800;28;19940;-80
2023/02/11 03:28:08;;;;;;;;;;;;;;;;;;1044208;28;19913;-81
2023/02/11 03:28:39;;;;;;;;;;;;;;;;;;1041074;28;20036;-79
2023/02/11 03:29:10;;;;;;;;;;;;;;;;;;1041428;28;19967;-80
2023/02/11 03:29:41;;;;;;;;;;;;;;;;;;1044683;28;19948;-80
2023/02/11 03:30:12;;;;;;;;;;;;;;;;;;1040536;28;20487;-78
2023/02/11 03:30:43;;;;;;;;;;;;;;;;;;1044691;28;19913;-80
2023/02/11 03:31:14;;;;;;;;;;;;;;;;;;1040070;28;20459;-80
2023/02/11 03:31:44;;;;;;;;;;;;;;;;;;1036474;28;19910;-80
2023/02/11 03:32:15;;;;;;;;;;;;;;;;;;1040103;28;19936;-79
2023/02/11 03:32:46;;;;;;;;;;;;;;;;;;1043281;28;19935;-81
2023/02/11 03:33:17;;;;;;;;;;;;;;;;;;1044228;28;20424;-79
2023/02/11 03:33:48;;;;;;;;;;;;;;;;;;1044528;28;20263;-79
2023/02/11 03:34:19;;;;;;;;;;;;;;;;;;1040171;28;19916;-79
2023/02/11 03:34:50;;;;;;;;;;;;;;;;;;1040470;28;19935;-80
2023/02/11 03:35:21;;;;;;;;;;;;;;;;;;1044356;28;20027;-80